Time;durP1;ratioP1;P1;durP2;ratioP2;P2;SDS_P1;SDS_P2;PMS_P1;PMS_P2;Temp;Humidity;BMP_temperature;BMP_pressure;BME280_temperature;BME280_humidity;BME280_pressure;Samples;Min_cycle;Max_cycle;Signal;HPM_P1;HPM_P2
2023/03/07 00:01:19;;;;;;;18.25;10.77;;;12.40;1.00;;;;;;4949653;29;20488;-63
2023/03/07 00:03:45;;;;;;;14.68;11.15;;;12.50;1.00;;;;;;4931986;29;20478;-63
2023/03/07 00:06:11;;;;;;;14.30;10.52;;;12.50;1.00;;;;;;4948588;29;20056;-63
2023/03/07 00:08:36;;;;;;;14.18;9.48;;;12.50;1.00;;;;;;4946022;29;20102;-63
2023/03/07 00:11:07;;;;;;;17.70;9.80;;;12.50;1.00;;;;;;4940010;29;20027;-63
2023/03/07 00:13:34;;;;;;;15.27;10.25;;;12.40;1.00;;;;;;4944581;29;20038;-63
2023/03/07 00:16:05;;;;;;;16.20;10.57;;;12.40;1.00;;;;;;4951650;29;20027;-63
2023/03/07 00:18:32;;;;;;;16.48;9.98;;;12.40;1.00;;;;;;4955176;29;20043;-63
2023/03/07 00:21:06;;;;;;;15.07;9.98;;;12.40;1.00;;;;;;4955031;29;20024;-63
2023/03/07 00:23:34;;;;;;;16.05;9.80;;;12.40;1.00;;;;;;4924167;29;20131;-63
2023/03/07 00:26:02;;;;;;;18.90;10.88;;;12.40;1.00;;;;;;4950543;29;20039;-63
2023/03/07 00:28:28;;;;;;;21.25;10.80;;;12.40;1.00;;;;;;4937573;29;20457;-63
2023/03/07 00:30:59;;;;;;;13.43;9.93;;;12.30;1.00;;;;;;4954986;29;20111;-63
2023/03/07 00:33:25;;;;;;;17.70;10.57;;;12.40;1.00;;;;;;4955275;29;20023;-63
2023/03/07 00:36:02;;;;;;;13.65;10.35;;;12.30;1.00;;;;;;4954739;29;20469;-63
2023/03/07 00:38:29;;;;;;;17.27;11.48;;;12.20;1.00;;;;;;4937786;29;20114;-63
2023/03/07 00:41:01;;;;;;;16.30;10.55;;;12.20;1.00;;;;;;4954601;29;20078;-63
2023/03/07 00:43:28;;;;;;;13.82;10.70;;;12.20;1.00;;;;;;4954975;29;20050;-63
2023/03/07 00:45:54;;;;;;;20.05;11.65;;;12.20;1.00;;;;;;4954848;29;20511;-63
2023/03/07 00:48:20;;;;;;;16.95;12.35;;;12.20;1.00;;;;;;4951636;29;20035;-63
2023/03/07 00:50:47;;;;;;;20.80;12.23;;;12.20;1.00;;;;;;4954179;29;20050;-63
2023/03/07 00:53:13;;;;;;;17.70;11.73;;;12.20;1.00;;;;;;4954697;29;20038;-63
2023/03/07 00:55:39;;;;;;;21.65;12.38;;;12.20;1.00;;;;;;4954715;29;20028;-63
2023/03/07 00:58:05;;;;;;;22.73;12.95;;;12.20;1.00;;;;;;4955006;29;20027;-63
2023/03/07 01:00:31;;;;;;;18.58;12.88;;;12.10;1.00;;;;;;4924543;29;20166;-63
2023/03/07 01:02:57;;;;;;;18.13;13.05;;;12.10;1.00;;;;;;4954731;29;20038;-63
2023/03/07 01:05:23;;;;;;;18.75;12.85;;;12.20;1.00;;;;;;4954368;29;20479;-63
2023/03/07 01:07:49;;;;;;;20.23;12.85;;;12.10;1.00;;;;;;4952624;29;20058;-62
2023/03/07 01:10:15;;;;;;;18.02;13.45;;;12.10;1.00;;;;;;4954335;29;20159;-63
2023/03/07 01:12:44;;;;;;;25.02;13.93;;;12.10;1.00;;;;;;4952829;28;20103;-63
2023/03/07 01:15:10;;;;;;;18.92;13.95;;;12.10;1.00;;;;;;4948964;29;20481;-63
2023/03/07 01:17:36;;;;;;;19.95;15.05;;;12.10;1.00;;;;;;4958107;29;20035;-63
2023/03/07 01:20:05;;;;;;;25.48;16.08;;;12.10;1.00;;;;;;4941317;29;20098;-63
2023/03/07 01:22:31;;;;;;;19.80;15.27;;;12.10;1.00;;;;;;4954181;29;20122;-63
2023/03/07 01:24:57;;;;;;;18.98;14.77;;;12.10;1.00;;;;;;4958020;29;20102;-63
2023/03/07 01:27:23;;;;;;;20.55;15.00;;;12.10;1.00;;;;;;4958161;29;20027;-63
2023/03/07 01:29:48;;;;;;;25.25;15.95;;;12.00;1.00;;;;;;4957951;29;20090;-63
2023/03/07 01:32:14;;;;;;;24.25;15.13;;;12.00;1.00;;;;;;4957997;29;20054;-63
2023/03/07 01:34:40;;;;;;;19.13;14.38;;;12.00;1.00;;;;;;4957886;29;20042;-63
2023/03/07 01:37:05;;;;;;;20.77;15.40;;;12.00;1.00;;;;;;4957877;29;20110;-63
2023/03/07 01:39:31;;;;;;;25.23;15.60;;;12.10;1.00;;;;;;4944332;29;20123;-63
2023/03/07 01:41:57;;;;;;;20.48;13.93;;;12.10;1.00;;;;;;4957849;29;20525;-63
2023/03/07 01:44:27;;;;;;;20.55;13.90;;;12.10;1.00;;;;;;4957877;29;20035;-63
2023/03/07 01:46:57;;;;;;;20.50;14.57;;;12.10;1.00;;;;;;4952661;29;20161;-63
2023/03/07 01:49:34;;;;;;;21.25;14.38;;;12.10;1.00;;;;;;4949578;29;20130;-63
2023/03/07 01:52:40;;;;;;;23.10;15.40;;;12.10;1.00;;;;;;4957759;29;20059;-63
2023/03/07 01:55:16;;;;;;;23.70;15.75;;;12.10;1.00;;;;;;4919831;29;20062;-63
2023/03/07 01:57:45;;;;;;;24.52;15.88;;;12.10;1.00;;;;;;4927460;29;20469;-63
2023/03/07 02:00:18;;;;;;;22.45;14.48;;;12.20;1.00;;;;;;4957510;29;20023;-63
2023/03/07 02:02:50;;;;;;;24.55;15.20;;;12.20;1.00;;;;;;4957507;29;20022;-63
2023/03/07 02:05:24;;;;;;;24.75;15.05;;;12.20;1.00;;;;;;4957405;29;20382;-63
2023/03/07 02:07:51;;;;;;;19.05;13.15;;;12.20;1.00;;;;;;4951933;29;20031;-63
2023/03/07 02:10:21;;;;;;;25.90;13.68;;;12.20;1.00;;;;;;4949298;29;20090;-63
2023/03/07 02:12:49;;;;;;;21.10;14.10;;;12.30;1.00;;;;;;4956604;29;20114;-63
2023/03/07 02:15:15;;;;;;;23.70;13.73;;;12.20;1.00;;;;;;4956948;29;20031;-63
2023/03/07 02:17:42;;;;;;;19.40;11.95;;;12.20;1.00;;;;;;4956379;29;20070;-63
2023/03/07 02:20:34;;;;;;;17.65;11.68;;;12.20;1.00;;;;;;4956950;29;20023;-63
2023/03/07 02:23:00;;;;;;;19.73;13.02;;;12.20;1.00;;;;;;4956601;28;20070;-64
2023/03/07 02:25:33;;;;;;;21.70;12.00;;;12.10;1.00;;;;;;4956551;29;20027;-63
2023/03/07 02:28:01;;;;;;;18.52;11.98;;;12.10;1.00;;;;;;4957084;29;20023;-63
2023/03/07 02:30:28;;;;;;;19.10;11.82;;;12.10;1.00;;;;;;4956422;29;20039;-63
2023/03/07 02:32:54;;;;;;;20.05;12.25;;;12.00;1.00;;;;;;4956052;29;20507;-63
2023/03/07 02:35:23;;;;;;;18.33;12.57;;;12.00;1.00;;;;;;4956306;29;20042;-63
2023/03/07 02:37:55;;;;;;;18.83;11.00;;;12.10;1.00;;;;;;4956354;29;20031;-63
2023/03/07 02:40:23;;;;;;;21.75;12.68;;;11.90;1.00;;;;;;4956039;29;20031;-63
2023/03/07 02:42:51;;;;;;;16.58;11.15;;;11.90;1.00;;;;;;4957081;29;20105;-63
2023/03/07 02:45:17;;;;;;;17.75;11.90;;;11.90;1.00;;;;;;4943620;29;20031;-63
2023/03/07 02:48:08;;;;;;;18.02;12.30;;;11.90;1.00;;;;;;4956728;29;20102;-63
2023/03/07 02:50:34;;;;;;;18.00;12.02;;;11.90;1.00;;;;;;4954255;29;20552;-63
2023/03/07 02:53:00;;;;;;;16.73;12.15;;;12.00;1.00;;;;;;4956898;29;20027;-63
2023/03/07 02:55:25;;;;;;;20.40;11.98;;;11.90;1.00;;;;;;4956314;29;20037;-63
2023/03/07 02:57:52;;;;;;;19.20;12.05;;;12.00;1.00;;;;;;4956648;29;20024;-63
2023/03/07 03:00:18;;;;;;;17.30;12.15;;;12.00;1.00;;;;;;4955728;29;20071;-63
2023/03/07 03:02:44;;;;;;;17.90;12.10;;;11.90;1.00;;;;;;4956366;29;20031;-63
2023/03/07 03:05:10;;;;;;;21.10;12.40;;;12.00;1.00;;;;;;4938835;29;20129;-63
2023/03/07 03:07:36;;;;;;;16.50;12.65;;;12.00;1.00;;;;;;4956262;29;20107;-63
2023/03/07 03:10:03;;;;;;;19.42;12.65;;;11.90;1.00;;;;;;4954047;29;20074;-63
2023/03/07 03:12:29;;;;;;;15.48;11.80;;;11.90;1.00;;;;;;4955519;29;20163;-63
2023/03/07 03:14:54;;;;;;;22.52;12.88;;;11.90;1.00;;;;;;4955424;29;20033;-62
2023/03/07 03:17:20;;;;;;;15.95;11.85;;;11.80;1.00;;;;;;4956370;29;20118;-64
2023/03/07 03:19:52;;;;;;;19.38;12.02;;;11.80;1.00;;;;;;4953407;29;20050;-63
2023/03/07 03:22:17;;;;;;;18.05;11.93;;;11.80;1.00;;;;;;4949189;29;20030;-63
2023/03/07 03:24:43;;;;;;;19.45;12.18;;;11.90;1.00;;;;;;4956057;29;20094;-63
2023/03/07 03:27:09;;;;;;;19.67;11.82;;;11.80;1.00;;;;;;4955977;29;20024;-63
2023/03/07 03:29:34;;;;;;;19.05;12.52;;;11.90;1.00;;;;;;4956066;29;20502;-63
2023/03/07 03:32:00;;;;;;;18.88;12.75;;;11.90;1.00;;;;;;4955810;29;20393;-63
2023/03/07 03:34:26;;;;;;;27.10;12.63;;;12.00;1.00;;;;;;4955353;28;20023;-63
2023/03/07 03:36:52;;;;;;;18.23;12.82;;;12.00;1.00;;;;;;4955873;29;20135;-63
2023/03/07 03:39:17;;;;;;;26.38;11.90;;;12.00;1.00;;;;;;4955625;29;20413;-63
2023/03/07 03:41:43;;;;;;;22.23;11.52;;;12.10;1.00;;;;;;4956183;29;20513;-63
2023/03/07 03:44:09;;;;;;;20.52;13.43;;;12.10;1.00;;;;;;4955575;29;20031;-63
2023/03/07 03:46:35;;;;;;;16.30;11.57;;;12.10;1.00;;;;;;4955787;29;20081;-62
2023/03/07 03:49:02;;;;;;;22.10;12.00;;;12.20;1.00;;;;;;4955407;29;20102;-63
2023/03/07 03:51:29;;;;;;;17.55;11.40;;;12.10;1.00;;;;;;4955052;29;20140;-63
2023/03/07 03:53:56;;;;;;;18.92;12.80;;;12.10;1.00;;;;;;4955639;29;20102;-63
2023/03/07 03:56:23;;;;;;;18.80;10.98;;;12.10;1.00;;;;;;4955625;29;20036;-63
2023/03/07 03:58:55;;;;;;;18.23;10.82;;;12.10;1.00;;;;;;4954967;29;20027;-63
2023/03/07 04:01:23;;;;;;;16.98;11.13;;;12.20;1.00;;;;;;4955792;29;20037;-63
2023/03/07 04:03:50;;;;;;;17.50;11.27;;;12.20;1.00;;;;;;4955275;29;20086;-62
2023/03/07 04:06:19;;;;;;;15.52;11.20;;;12.30;1.00;;;;;;4955282;29;20023;-63
2023/03/07 04:08:46;;;;;;;21.25;12.20;;;12.30;1.00;;;;;;4937818;29;20155;-63
2023/03/07 04:11:13;;;;;;;22.75;11.32;;;12.30;1.00;;;;;;4938074;29;20434;-63
2023/03/07 04:13:39;;;;;;;17.20;11.15;;;12.30;1.00;;;;;;4954105;29;20354;-63
2023/03/07 04:16:05;;;;;;;21.33;13.05;;;12.30;1.00;;;;;;4925737;29;20094;-63
2023/03/07 04:18:31;;;;;;;18.45;11.43;;;12.30;1.00;;;;;;4955127;29;20504;-63
2023/03/07 04:20:57;;;;;;;15.15;10.45;;;12.30;1.00;;;;;;4955071;29;20020;-63
2023/03/07 04:23:24;;;;;;;16.83;10.80;;;12.30;1.00;;;;;;4955422;29;20501;-63
2023/03/07 04:25:55;;;;;;;18.02;10.05;;;12.30;1.00;;;;;;4955058;29;20019;-63
2023/03/07 04:28:22;;;;;;;18.92;11.27;;;12.30;1.00;;;;;;4955019;29;20059;-64
2023/03/07 04:30:48;;;;;;;16.90;10.63;;;12.30;1.00;;;;;;4952952;29;20123;-64
2023/03/07 04:33:15;;;;;;;17.13;11.23;;;12.30;1.00;;;;;;4943729;29;20154;-63
2023/03/07 04:35:41;;;;;;;17.67;10.82;;;12.30;1.00;;;;;;4954895;29;20046;-63
2023/03/07 04:38:07;;;;;;;15.38;10.23;;;12.20;1.00;;;;;;4954635;29;20027;-63
2023/03/07 04:40:33;;;;;;;17.20;11.07;;;12.20;1.00;;;;;;4926665;29;20054;-63
2023/03/07 04:42:59;;;;;;;19.15;10.88;;;12.20;1.00;;;;;;4952795;29;20019;-63
2023/03/07 04:45:25;;;;;;;15.73;9.40;;;12.20;1.00;;;;;;4954876;29;20031;-63
2023/03/07 04:47:50;;;;;;;14.02;9.68;;;12.20;1.00;;;;;;4934980;29;20115;-63
2023/03/07 04:50:17;;;;;;;19.40;10.43;;;12.20;1.00;;;;;;4954569;29;20043;-63
2023/03/07 04:52:43;;;;;;;15.05;10.57;;;12.20;1.00;;;;;;4954744;29;20082;-63
2023/03/07 04:55:09;;;;;;;15.43;10.90;;;12.20;1.00;;;;;;4955119;29;20031;-63
2023/03/07 04:57:35;;;;;;;17.67;10.30;;;12.10;1.00;;;;;;4955028;29;20055;-63
2023/03/07 05:00:02;;;;;;;16.35;11.15;;;12.10;1.00;;;;;;4954713;29;20059;-63
2023/03/07 05:02:28;;;;;;;21.40;11.38;;;12.10;1.00;;;;;;4954988;29;20031;-63
2023/03/07 05:04:53;;;;;;;18.67;10.73;;;12.10;1.00;;;;;;4941047;29;20176;-63
2023/03/07 05:07:19;;;;;;;18.42;10.82;;;12.20;1.00;;;;;;4954493;29;20039;-63
2023/03/07 05:09:44;;;;;;;20.42;11.13;;;12.10;1.00;;;;;;4950857;29;20042;-63
2023/03/07 05:12:10;;;;;;;17.27;11.38;;;12.10;1.00;;;;;;4949607;29;20028;-63
2023/03/07 05:14:36;;;;;;;15.05;10.80;;;12.00;1.00;;;;;;4946180;29;20035;-63
2023/03/07 05:17:01;;;;;;;18.15;11.02;;;12.10;1.00;;;;;;4954801;29;20028;-63
2023/03/07 05:19:28;;;;;;;16.70;9.60;;;12.10;1.00;;;;;;4954534;29;20031;-63
2023/03/07 05:21:53;;;;;;;25.17;10.25;;;12.20;1.00;;;;;;4954674;29;20039;-63
2023/03/07 05:24:19;;;;;;;16.23;10.95;;;12.10;1.00;;;;;;4954369;29;20038;-63
2023/03/07 05:26:45;;;;;;;17.67;10.35;;;12.10;1.00;;;;;;4954341;29;20081;-63
2023/03/07 05:29:10;;;;;;;18.92;10.48;;;12.20;1.00;;;;;;4954275;29;20039;-63
2023/03/07 05:31:36;;;;;;;18.25;10.55;;;12.20;1.00;;;;;;4954451;29;20031;-63
2023/03/07 05:34:02;;;;;;;17.05;10.38;;;12.20;1.00;;;;;;4954421;29;20034;-63
2023/03/07 05:36:27;;;;;;;16.27;10.43;;;12.10;1.00;;;;;;4954518;29;20041;-63
2023/03/07 05:38:55;;;;;;;16.40;10.07;;;12.20;1.00;;;;;;4937364;29;20055;-63
2023/03/07 05:41:21;;;;;;;17.75;10.30;;;12.20;1.00;;;;;;4954391;29;20079;-63
2023/03/07 05:43:47;;;;;;;14.93;9.98;;;12.20;1.00;;;;;;4954507;29;20023;-63
2023/03/07 05:46:13;;;;;;;18.58;10.48;;;12.20;1.00;;;;;;4954273;29;20058;-63
2023/03/07 05:48:38;;;;;;;14.18;9.40;;;12.30;1.00;;;;;;4937002;29;20031;-63
2023/03/07 05:51:04;;;;;;;16.30;10.05;;;12.30;1.00;;;;;;4937061;29;20027;-63
2023/03/07 05:53:32;;;;;;;19.58;11.00;;;12.30;1.00;;;;;;4954603;29;20085;-63
2023/03/07 05:55:57;;;;;;;19.63;9.98;;;12.30;1.00;;;;;;4954181;29;20041;-64
2023/03/07 05:58:23;;;;;;;14.90;9.73;;;12.30;1.00;;;;;;4955261;28;20023;-64
2023/03/07 06:00:49;;;;;;;18.15;9.05;;;12.30;1.00;;;;;;4953343;29;20114;-64
2023/03/07 06:03:14;;;;;;;17.98;11.13;;;12.20;1.00;;;;;;4957924;29;20397;-64
2023/03/07 06:05:40;;;;;;;21.27;10.13;;;12.20;1.00;;;;;;4957550;29;20483;-64
2023/03/07 06:08:06;;;;;;;20.15;10.48;;;12.20;1.00;;;;;;4953472;29;20034;-64
2023/03/07 06:10:32;;;;;;;16.50;9.95;;;12.30;1.00;;;;;;4957481;29;20046;-64
2023/03/07 06:12:58;;;;;;;17.70;9.70;;;12.30;1.00;;;;;;4940363;29;20020;-64
2023/03/07 06:15:24;;;;;;;20.60;9.88;;;12.20;1.00;;;;;;4957220;29;20572;-64
2023/03/07 06:17:51;;;;;;;15.82;10.30;;;12.30;1.00;;;;;;4957583;29;20027;-64
2023/03/07 06:20:19;;;;;;;17.08;10.43;;;12.30;1.00;;;;;;4957245;29;20054;-64
2023/03/07 06:22:45;;;;;;;19.83;10.65;;;12.30;1.00;;;;;;4957301;29;20038;-64
2023/03/07 06:25:11;;;;;;;16.83;9.55;;;12.40;1.00;;;;;;4957144;29;20039;-63
2023/03/07 06:27:38;;;;;;;20.38;11.50;;;12.40;1.00;;;;;;4957273;29;20069;-64
2023/03/07 06:30:51;;;;;;;18.10;10.45;;;12.40;1.00;;;;;;4957322;29;20039;-63
2023/03/07 06:33:18;;;;;;;18.80;11.95;;;12.50;1.00;;;;;;4948500;29;20027;-64
2023/03/07 06:35:44;;;;;;;20.08;11.63;;;12.50;1.00;;;;;;4936162;29;20075;-64
2023/03/07 06:38:11;;;;;;;23.35;11.80;;;12.60;1.00;;;;;;4946664;29;20023;-63
2023/03/07 06:40:37;;;;;;;21.00;11.18;;;12.60;1.00;;;;;;4956806;29;20038;-64
2023/03/07 06:43:02;;;;;;;21.83;11.77;;;12.50;1.00;;;;;;4957117;29;20036;-64
2023/03/07 06:45:28;;;;;;;23.10;11.32;;;12.50;1.00;;;;;;4956772;29;20038;-64
2023/03/07 06:47:54;;;;;;;23.05;13.32;;;12.50;1.00;;;;;;4957069;29;20023;-64
2023/03/07 06:50:20;;;;;;;19.10;13.82;;;12.50;1.00;;;;;;4956360;29;20204;-64
2023/03/07 06:52:45;;;;;;;19.92;14.07;;;12.50;1.00;;;;;;4956685;29;20497;-64
2023/03/07 06:55:11;;;;;;;25.63;14.77;;;12.50;1.00;;;;;;4956637;29;20055;-64
2023/03/07 06:57:37;;;;;;;27.10;14.73;;;12.50;1.00;;;;;;4956724;29;20019;-64
2023/03/07 07:00:05;;;;;;;25.25;15.45;;;12.50;1.00;;;;;;4956284;29;20419;-64
2023/03/07 07:02:31;;;;;;;24.90;16.42;;;12.50;1.00;;;;;;4956650;29;20034;-64
2023/03/07 07:04:57;;;;;;;23.23;16.77;;;12.50;1.00;;;;;;4956481;29;20405;-64
2023/03/07 07:07:24;;;;;;;25.25;17.90;;;12.50;1.00;;;;;;4956297;29;20493;-64
2023/03/07 07:09:50;;;;;;;23.85;16.15;;;12.40;1.00;;;;;;4945688;29;20152;-64
2023/03/07 07:12:16;;;;;;;25.60;16.60;;;12.40;1.00;;;;;;4956449;29;20023;-64
2023/03/07 07:14:42;;;;;;;25.42;16.92;;;12.40;1.00;;;;;;4938887;29;20035;-64
2023/03/07 07:17:08;;;;;;;24.17;18.38;;;12.50;1.00;;;;;;4956274;29;20474;-64
2023/03/07 07:19:34;;;;;;;27.92;19.08;;;12.50;1.00;;;;;;4955830;29;20023;-64
2023/03/07 07:21:59;;;;;;;26.90;18.42;;;12.50;1.00;;;;;;4938972;29;20039;-63
2023/03/07 07:24:25;;;;;;;33.53;19.45;;;12.50;1.00;;;;;;4955958;29;20034;-64
2023/03/07 07:26:51;;;;;;;29.15;18.73;;;12.50;1.00;;;;;;4956250;29;20026;-64
2023/03/07 07:29:16;;;;;;;34.13;20.45;;;12.60;1.00;;;;;;4956026;29;20532;-63
2023/03/07 07:31:42;;;;;;;29.02;19.35;;;12.50;1.00;;;;;;4942506;29;20024;-63
2023/03/07 07:34:08;;;;;;;30.13;20.20;;;12.50;1.00;;;;;;4955922;29;20038;-64
2023/03/07 07:36:34;;;;;;;26.40;17.33;;;12.50;1.00;;;;;;4955538;29;20050;-64
2023/03/07 07:39:06;;;;;;;27.00;17.48;;;12.60;1.00;;;;;;4955841;29;20062;-64
2023/03/07 07:41:32;;;;;;;27.65;19.15;;;12.50;1.00;;;;;;4955487;29;20035;-64
2023/03/07 07:43:58;;;;;;;25.58;17.20;;;12.60;1.00;;;;;;4949183;29;20381;-64
2023/03/07 07:46:24;;;;;;;29.15;18.48;;;12.70;1.00;;;;;;4953429;29;20034;-63
2023/03/07 07:48:50;;;;;;;27.35;19.33;;;12.70;1.00;;;;;;4955630;29;20422;-62
2023/03/07 07:51:16;;;;;;;31.27;19.88;;;12.60;1.00;;;;;;4954732;29;20393;-63
2023/03/07 07:53:45;;;;;;;27.88;18.40;;;12.70;1.00;;;;;;4954973;29;20023;-63
2023/03/07 07:56:10;;;;;;;25.75;17.90;;;12.70;1.00;;;;;;4938174;29;20484;-62
2023/03/07 07:58:36;;;;;;;27.55;17.58;;;12.80;1.00;;;;;;4955171;29;20082;-63
2023/03/07 08:01:18;;;;;;;29.58;20.58;;;12.80;1.00;;;;;;4955327;29;20082;-62
2023/03/07 08:03:44;;;;;;;29.65;20.05;;;12.80;1.00;;;;;;4955255;29;20032;-62
2023/03/07 08:06:10;;;;;;;31.08;19.92;;;12.90;1.00;;;;;;4955338;29;20159;-58
2023/03/07 08:08:36;;;;;;;31.58;19.80;;;12.90;1.00;;;;;;4955537;29;20106;-65
2023/03/07 08:11:02;;;;;;;28.08;18.60;;;13.00;1.00;;;;;;4955005;29;20126;-51
2023/03/07 08:13:28;;;;;;;31.27;20.38;;;13.00;1.00;;;;;;4937804;29;20382;-52
2023/03/07 08:15:54;;;;;;;24.58;18.05;;;13.00;1.00;;;;;;4955159;29;20054;-55
2023/03/07 08:18:20;;;;;;;32.13;19.55;;;13.10;1.00;;;;;;4955060;29;20027;-52
2023/03/07 08:20:46;;;;;;;34.80;17.92;;;13.10;1.00;;;;;;4954866;28;20418;-52
2023/03/07 08:23:11;;;;;;;27.85;19.30;;;13.20;1.00;;;;;;4954282;29;20027;-58
2023/03/07 08:25:37;;;;;;;28.08;19.83;;;13.10;1.00;;;;;;4955108;29;20023;-63
2023/03/07 08:28:04;;;;;;;30.10;20.00;;;13.20;1.00;;;;;;4954727;29;20027;-61
2023/03/07 08:30:31;;;;;;;28.23;19.10;;;13.30;1.00;;;;;;4953658;29;20082;-55
2023/03/07 08:32:58;;;;;;;27.58;18.38;;;13.30;1.00;;;;;;4948340;29;20466;-54
2023/03/07 08:35:25;;;;;;;26.80;19.02;;;13.30;1.00;;;;;;4954058;29;20534;-52
2023/03/07 08:37:55;;;;;;;24.80;18.65;;;13.40;1.00;;;;;;4954041;29;20031;-55
2023/03/07 08:40:23;;;;;;;25.55;18.08;;;13.50;1.00;;;;;;4936654;29;20043;-59
2023/03/07 08:42:49;;;;;;;28.30;18.90;;;13.50;1.00;;;;;;4954081;29;20023;-55
2023/03/07 08:45:15;;;;;;;31.55;18.77;;;13.50;1.00;;;;;;4953990;29;20122;-58
2023/03/07 08:47:41;;;;;;;27.98;17.90;;;13.40;1.00;;;;;;4954314;29;20039;-57
2023/03/07 08:50:07;;;;;;;25.58;17.90;;;13.50;1.00;;;;;;4952037;29;20059;-55
2023/03/07 08:52:33;;;;;;;28.05;17.75;;;13.50;1.00;;;;;;4953585;29;20031;-58
2023/03/07 08:54:59;;;;;;;23.25;16.08;;;13.60;1.00;;;;;;4953785;29;20094;-54
2023/03/07 08:57:25;;;;;;;21.27;16.50;;;13.60;1.00;;;;;;4953157;29;20027;-52
2023/03/07 08:59:50;;;;;;;24.60;16.63;;;13.60;1.00;;;;;;4953746;29;20046;-69
2023/03/07 09:02:19;;;;;;;30.73;17.60;;;13.70;1.00;;;;;;4955193;28;20496;-59
2023/03/07 09:04:44;;;;;;;22.30;15.25;;;13.60;1.00;;;;;;4953617;29;20039;-58
2023/03/07 09:07:10;;;;;;;23.85;16.40;;;13.70;1.00;;;;;;4953990;29;20094;-57
2023/03/07 09:09:36;;;;;;;26.38;16.42;;;13.70;1.00;;;;;;4953729;29;20493;-58
2023/03/07 09:12:02;;;;;;;30.10;16.20;;;13.80;1.00;;;;;;4951713;29;20046;-54
2023/03/07 09:14:27;;;;;;;23.30;15.85;;;13.70;1.00;;;;;;4953287;29;20394;-56
2023/03/07 09:16:53;;;;;;;22.88;17.83;;;13.80;1.00;;;;;;4953111;29;20035;-52
2023/03/07 09:19:19;;;;;;;25.35;17.38;;;13.80;1.00;;;;;;4946760;29;20037;-56
2023/03/07 09:21:45;;;;;;;22.50;16.13;;;13.70;1.00;;;;;;4953783;29;20042;-49
2023/03/07 09:24:10;;;;;;;24.13;15.82;;;13.80;1.00;;;;;;4936621;29;20027;-58
2023/03/07 09:26:36;;;;;;;25.58;17.23;;;13.80;1.00;;;;;;4953205;29;20114;-58
2023/03/07 09:29:02;;;;;;;28.15;15.68;;;13.70;1.00;;;;;;4936368;29;20401;-55
2023/03/07 09:31:28;;;;;;;23.48;15.18;;;13.70;1.00;;;;;;4953672;29;20394;-66
2023/03/07 09:33:55;;;;;;;21.65;14.82;;;13.50;1.00;;;;;;4948717;28;20098;-51
2023/03/07 09:36:20;;;;;;;22.00;13.05;;;13.50;1.00;;;;;;4952230;29;20031;-54
2023/03/07 09:38:47;;;;;;;21.60;15.48;;;13.60;1.00;;;;;;4958123;29;20081;-53
2023/03/07 09:41:30;;;;;;;21.42;14.57;;;13.70;1.00;;;;;;4957701;29;20031;-51
2023/03/07 09:44:09;;;;;;;26.80;16.90;;;13.70;1.00;;;;;;4945523;29;20038;-62
2023/03/07 09:46:59;;;;;;;23.33;13.32;;;13.70;1.00;;;;;;4957758;29;20027;-66
2023/03/07 09:49:40;;;;;;;21.95;12.85;;;13.60;1.00;;;;;;4957869;29;20039;-64
2023/03/07 09:52:14;;;;;;;16.17;11.65;;;13.60;1.00;;;;;;4956186;29;20110;-69
2023/03/07 09:54:45;;;;;;;19.77;10.93;;;13.60;1.00;;;;;;4941094;29;20031;-60
2023/03/07 09:57:20;;;;;;;18.13;11.25;;;13.60;1.00;;;;;;4957599;29;20106;-61
2023/03/07 09:59:51;;;;;;;22.10;11.73;;;13.60;1.00;;;;;;4945002;29;20067;-63
2023/03/07 10:02:17;;;;;;;16.85;11.27;;;13.70;1.00;;;;;;4957703;29;20031;-64
2023/03/07 10:05:10;;;;;;;22.25;13.07;;;13.80;1.00;;;;;;4957442;29;20053;-63
2023/03/07 10:07:36;;;;;;;18.58;12.00;;;13.90;1.00;;;;;;4956200;29;20050;-62
2023/03/07 10:10:25;;;;;;;20.17;12.25;;;13.80;1.00;;;;;;4955158;29;20039;-62
2023/03/07 10:13:22;;;;;;;15.15;11.57;;;13.90;1.00;;;;;;4955135;29;20389;-62
2023/03/07 10:15:52;;;;;;;18.83;10.85;;;14.00;1.00;;;;;;4956242;29;20024;-60
2023/03/07 10:18:40;;;;;;;16.63;9.30;;;14.10;1.00;;;;;;4955111;29;20027;-62
2023/03/07 10:21:36;;;;;;;19.70;10.25;;;14.10;1.00;;;;;;4952083;28;20035;-63
2023/03/07 10:24:11;;;;;;;16.67;9.20;;;14.20;1.00;;;;;;4956199;29;20445;-64
2023/03/07 10:26:47;;;;;;;20.23;9.38;;;14.20;1.00;;;;;;4955682;29;20074;-61
2023/03/07 10:29:17;;;;;;;22.08;10.48;;;14.30;1.00;;;;;;4938530;29;20592;-61
2023/03/07 10:31:54;;;;;;;17.17;10.23;;;14.30;1.00;;;;;;4956204;29;20110;-63
2023/03/07 10:34:28;;;;;;;17.70;10.32;;;14.30;1.00;;;;;;4953932;29;20063;-61
2023/03/07 10:37:08;;;;;;;23.92;11.98;;;14.20;1.00;;;;;;4949815;29;20531;-58
2023/03/07 10:39:45;;;;;;;19.00;10.95;;;14.20;1.00;;;;;;4952343;29;20102;-62
2023/03/07 10:42:12;;;;;;;19.40;9.93;;;14.20;1.00;;;;;;4948616;29;20062;-59
2023/03/07 10:44:39;;;;;;;19.88;10.68;;;14.20;1.00;;;;;;4935517;29;20031;-60
2023/03/07 10:47:05;;;;;;;17.25;10.90;;;14.30;1.00;;;;;;4954861;28;20035;-62
2023/03/07 10:49:38;;;;;;;21.60;9.65;;;14.30;1.00;;;;;;4950075;28;20047;-64
2023/03/07 10:52:40;;;;;;;16.98;10.43;;;14.40;1.00;;;;;;4954603;29;20035;-62
2023/03/07 10:55:45;;;;;;;16.20;9.98;;;14.30;1.00;;;;;;4952226;29;20027;-60
2023/03/07 10:58:13;;;;;;;20.40;9.02;;;14.40;1.00;;;;;;4904877;29;20028;-57
2023/03/07 11:00:40;;;;;;;18.15;8.05;;;14.40;1.00;;;;;;4948400;29;20031;-57
2023/03/07 11:03:28;;;;;;;18.13;9.40;;;14.40;1.00;;;;;;4953894;29;20034;-53
2023/03/07 11:05:54;;;;;;;17.70;8.23;;;14.50;1.00;;;;;;4932627;29;20114;-61
2023/03/07 11:08:32;;;;;;;17.15;8.07;;;14.40;1.00;;;;;;4952622;29;20035;-64
2023/03/07 11:11:03;;;;;;;16.55;8.48;;;14.50;1.00;;;;;;4949063;29;20065;-62
2023/03/07 11:13:30;;;;;;;26.10;10.18;;;14.80;1.00;;;;;;4953425;28;20110;-53
2023/03/07 11:16:15;;;;;;;18.80;9.98;;;14.80;1.00;;;;;;4951760;29;20057;-63
2023/03/07 11:18:43;;;;;;;18.50;8.60;;;15.00;1.00;;;;;;4949938;29;20428;-62
2023/03/07 11:21:32;;;;;;;18.65;9.20;;;15.20;1.00;;;;;;4951648;29;20114;-63
2023/03/07 11:24:00;;;;;;;19.40;9.40;;;15.40;1.00;;;;;;4951325;29;20043;-61
2023/03/07 11:26:31;;;;;;;16.58;9.27;;;15.50;1.00;;;;;;4949252;29;20065;-61
2023/03/07 11:29:10;;;;;;;14.65;7.93;;;15.70;1.00;;;;;;4949128;29;20062;-61
2023/03/07 11:31:56;;;;;;;16.58;8.98;;;15.80;1.00;;;;;;4951556;29;20046;-61
2023/03/07 11:34:43;;;;;;;14.35;9.57;;;15.50;1.00;;;;;;4948012;29;20024;-62
2023/03/07 11:37:28;;;;;;;22.95;10.05;;;15.50;1.00;;;;;;4950525;29;20046;-62
2023/03/07 11:39:57;;;;;;;17.80;8.90;;;15.50;1.00;;;;;;4950535;29;20023;-61
2023/03/07 11:42:36;;;;;;;21.45;9.02;;;15.60;1.00;;;;;;4953115;29;20027;-59
2023/03/07 11:45:37;;;;;;;17.38;9.48;;;15.70;1.00;;;;;;4952681;28;20421;-63
2023/03/07 11:48:37;;;;;;;15.98;8.10;;;15.90;1.00;;;;;;4945337;28;20062;-63
2023/03/07 11:51:05;;;;;;;22.63;9.25;;;16.00;1.00;;;;;;4940702;29;20051;-66
2023/03/07 11:53:31;;;;;;;15.25;7.75;;;16.10;1.00;;;;;;4951822;29;20704;-67
2023/03/07 11:56:15;;;;;;;18.67;8.48;;;16.10;1.00;;;;;;4952626;28;20469;-68
2023/03/07 11:59:20;;;;;;;12.82;7.07;;;16.20;1.00;;;;;;4950808;29;20035;-59
2023/03/07 12:01:55;;;;;;;16.95;8.88;;;16.20;1.00;;;;;;4951043;29;20042;-61
2023/03/07 12:05:02;;;;;;;22.35;9.50;;;16.40;1.00;;;;;;4950442;29;20115;-61
2023/03/07 12:07:46;;;;;;;26.60;10.02;;;16.40;1.00;;;;;;4930295;29;20114;-62
2023/03/07 12:10:38;;;;;;;17.33;9.57;;;16.40;1.00;;;;;;4952870;29;20151;-62
2023/03/07 12:13:09;;;;;;;15.80;9.40;;;16.40;1.00;;;;;;4951314;29;20063;-62
2023/03/07 12:15:46;;;;;;;18.92;9.50;;;16.30;1.00;;;;;;4953521;29;20036;-62
2023/03/07 12:18:17;;;;;;;21.75;10.98;;;16.10;1.00;;;;;;4952218;28;20371;-62
2023/03/07 12:21:13;;;;;;;19.73;9.32;;;16.20;1.00;;;;;;4952407;29;20034;-62
2023/03/07 12:23:46;;;;;;;14.90;10.00;;;16.30;1.00;;;;;;4955195;28;20035;-62
2023/03/07 12:26:32;;;;;;;19.10;9.77;;;16.30;1.00;;;;;;4947529;29;20046;-62
2023/03/07 12:29:20;;;;;;;22.92;10.95;;;16.30;1.00;;;;;;4936310;29;20027;-62
2023/03/07 12:31:50;;;;;;;19.42;9.80;;;16.20;1.00;;;;;;4953607;29;20035;-62
2023/03/07 12:34:44;;;;;;;15.73;10.43;;;16.40;1.00;;;;;;4953455;29;20106;-62
2023/03/07 12:37:16;;;;;;;29.08;11.57;;;16.60;1.00;;;;;;4938400;29;20043;-62
2023/03/07 12:40:00;;;;;;;34.08;15.60;;;16.60;1.00;;;;;;4954117;29;20043;-62
2023/03/07 12:42:45;;;;;;;22.30;11.55;;;16.70;1.00;;;;;;4951969;29;20027;-62
2023/03/07 12:45:21;;;;;;;28.73;12.43;;;16.70;1.00;;;;;;4932689;29;20020;-62
2023/03/07 12:47:53;;;;;;;16.88;10.43;;;16.80;1.00;;;;;;4934771;29;20601;-62
2023/03/07 12:50:37;;;;;;;18.67;11.32;;;16.90;1.00;;;;;;4952455;29;20086;-62
2023/03/07 12:53:39;;;;;;;23.27;11.15;;;16.90;1.00;;;;;;4953788;29;20074;-61